sensor_id;sensor_type;location;lat;lon;timestamp;temperature;humidity
47765;DHT22;33529;49.242;8.670;2022-11-20T00:01:13;4.20;99.90
47765;DHT22;33529;49.242;8.670;2022-11-20T00:03:40;4.20;99.90
47765;DHT22;33529;49.242;8.670;2022-11-20T00:06:11;4.20;99.90
47765;DHT22;33529;49.242;8.670;2022-11-20T00:08:38;4.20;99.90
47765;DHT22;33529;49.242;8.670;2022-11-20T00:11:10;4.30;99.90
47765;DHT22;33529;49.242;8.670;2022-11-20T00:13:46;4.30;99.90
47765;DHT22;33529;49.242;8.670;2022-11-20T00:16:16;4.30;99.90
47765;DHT22;33529;49.242;8.670;2022-11-20T00:18:44;4.40;99.90
47765;DHT22;33529;49.242;8.670;2022-11-20T00:21:14;4.40;99.90
47765;DHT22;33529;49.242;8.670;2022-11-20T00:23:42;4.40;99.90
47765;DHT22;33529;49.242;8.670;2022-11-20T00:26:11;4.30;99.90
47765;DHT22;33529;49.242;8.670;2022-11-20T00:28:38;4.40;99.90
47765;DHT22;33529;49.242;8.670;2022-11-20T00:31:08;4.40;99.90
47765;DHT22;33529;49.242;8.670;2022-11-20T00:33:35;4.30;99.90
47765;DHT22;33529;49.242;8.670;2022-11-20T00:36:04;4.40;99.90
47765;DHT22;33529;49.242;8.670;2022-11-20T00:38:32;4.40;99.90
47765;DHT22;33529;49.242;8.670;2022-11-20T00:41:00;4.50;99.90
47765;DHT22;33529;49.242;8.670;2022-11-20T00:43:28;4.50;99.90
47765;DHT22;33529;49.242;8.670;2022-11-20T00:46:05;4.50;99.90
47765;DHT22;33529;49.242;8.670;2022-11-20T00:48:33;4.60;99.90
47765;DHT22;33529;49.242;8.670;2022-11-20T00:51:00;4.50;99.90
47765;DHT22;33529;49.242;8.670;2022-11-20T00:53:27;4.60;99.90
47765;DHT22;33529;49.242;8.670;2022-11-20T00:55:55;4.50;99.90
47765;DHT22;33529;49.242;8.670;2022-11-20T00:58:23;4.50;99.90
47765;DHT22;33529;49.242;8.670;2022-11-20T01:00:51;4.60;99.90
47765;DHT22;33529;49.242;8.670;2022-11-20T01:03:18;4.70;99.90
47765;DHT22;33529;49.242;8.670;2022-11-20T01:05:52;4.60;99.90
47765;DHT22;33529;49.242;8.670;2022-11-20T01:08:19;4.60;99.90
47765;DHT22;33529;49.242;8.670;2022-11-20T01:10:49;4.60;99.90
47765;DHT22;33529;49.242;8.670;2022-11-20T01:13:15;4.60;99.90
47765;DHT22;33529;49.242;8.670;2022-11-20T01:16:09;4.60;99.90
47765;DHT22;33529;49.242;8.670;2022-11-20T01:18:40;4.70;99.90
47765;DHT22;33529;49.242;8.670;2022-11-20T01:21:11;4.70;99.90
47765;DHT22;33529;49.242;8.670;2022-11-20T01:23:41;4.70;99.90
47765;DHT22;33529;49.242;8.670;2022-11-20T01:26:14;4.70;99.90
47765;DHT22;33529;49.242;8.670;2022-11-20T01:28:42;4.60;99.90
47765;DHT22;33529;49.242;8.670;2022-11-20T01:31:18;4.70;99.90
47765;DHT22;33529;49.242;8.670;2022-11-20T01:33:47;4.70;99.90
47765;DHT22;33529;49.242;8.670;2022-11-20T01:36:16;4.80;99.90
47765;DHT22;33529;49.242;8.670;2022-11-20T01:38:43;4.70;99.90
47765;DHT22;33529;49.242;8.670;2022-11-20T01:41:12;4.70;99.90
47765;DHT22;33529;49.242;8.670;2022-11-20T01:44:03;4.80;99.90
47765;DHT22;33529;49.242;8.670;2022-11-20T01:46:35;4.80;99.90
47765;DHT22;33529;49.242;8.670;2022-11-20T01:49:16;4.80;99.90
47765;DHT22;33529;49.242;8.670;2022-11-20T01:52:32;4.90;99.90
47765;DHT22;33529;49.242;8.670;2022-11-20T01:54:48;4.90;99.90
47765;DHT22;33529;49.242;8.670;2022-11-20T01:57:18;4.80;99.90
47765;DHT22;33529;49.242;8.670;2022-11-20T01:59:52;4.80;99.90
47765;DHT22;33529;49.242;8.670;2022-11-20T02:02:21;4.80;99.90
47765;DHT22;33529;49.242;8.670;2022-11-20T02:04:51;4.80;99.90
47765;DHT22;33529;49.242;8.670;2022-11-20T02:07:21;4.80;99.90
47765;DHT22;33529;49.242;8.670;2022-11-20T02:09:50;4.90;99.90
47765;DHT22;33529;49.242;8.670;2022-11-20T02:12:24;4.90;99.90
47765;DHT22;33529;49.242;8.670;2022-11-20T02:15:10;5.00;99.90
47765;DHT22;33529;49.242;8.670;2022-11-20T02:17:42;4.90;99.90
47765;DHT22;33529;49.242;8.670;2022-11-20T02:20:09;5.00;99.90
47765;DHT22;33529;49.242;8.670;2022-11-20T02:23:08;5.00;99.90
47765;DHT22;33529;49.242;8.670;2022-11-20T02:25:38;5.10;99.90
47765;DHT22;33529;49.242;8.670;2022-11-20T02:28:06;5.10;99.90
47765;DHT22;33529;49.242;8.670;2022-11-20T02:30:33;5.10;99.90
47765;DHT22;33529;49.242;8.670;2022-11-20T02:32:59;5.20;99.90
47765;DHT22;33529;49.242;8.670;2022-11-20T02:37:55;5.10;99.90
47765;DHT22;33529;49.242;8.670;2022-11-20T02:40:23;5.00;99.90
47765;DHT22;33529;49.242;8.670;2022-11-20T02:42:56;5.00;99.90
47765;DHT22;33529;49.242;8.670;2022-11-20T02:45:24;5.10;99.90
47765;DHT22;33529;49.242;8.670;2022-11-20T02:47:51;5.10;99.90
47765;DHT22;33529;49.242;8.670;2022-11-20T02:50:18;5.10;99.90
47765;DHT22;33529;49.242;8.670;2022-11-20T02:52:45;5.10;99.90
47765;DHT22;33529;49.242;8.670;2022-11-20T02:55:12;5.10;99.90
47765;DHT22;33529;49.242;8.670;2022-11-20T02:57:39;5.10;99.90
47765;DHT22;33529;49.242;8.670;2022-11-20T03:00:06;5.10;99.90
47765;DHT22;33529;49.242;8.670;2022-11-20T03:02:33;5.20;99.90
47765;DHT22;33529;49.242;8.670;2022-11-20T03:05:01;5.20;99.90
47765;DHT22;33529;49.242;8.670;2022-11-20T03:07:27;5.20;99.90
47765;DHT22;33529;49.242;8.670;2022-11-20T03:09:54;5.30;99.90
47765;DHT22;33529;49.242;8.670;2022-11-20T03:12:21;5.30;99.90
47765;DHT22;33529;49.242;8.670;2022-11-20T03:14:48;5.30;99.90
47765;DHT22;33529;49.242;8.670;2022-11-20T03:17:19;5.30;99.90
47765;DHT22;33529;49.242;8.670;2022-11-20T03:19:45;5.30;99.90
47765;DHT22;33529;49.242;8.670;2022-11-20T03:22:12;5.30;99.90
47765;DHT22;33529;49.242;8.670;2022-11-20T03:24:39;5.40;99.90
47765;DHT22;33529;49.242;8.670;2022-11-20T03:27:06;5.40;99.90
47765;DHT22;33529;49.242;8.670;2022-11-20T03:29:34;5.40;99.90
47765;DHT22;33529;49.242;8.670;2022-11-20T03:32:01;5.40;99.90
47765;DHT22;33529;49.242;8.670;2022-11-20T03:34:27;5.50;99.90
47765;DHT22;33529;49.242;8.670;2022-11-20T03:36:54;5.50;99.90
47765;DHT22;33529;49.242;8.670;2022-11-20T03:39:21;5.40;99.90
47765;DHT22;33529;49.242;8.670;2022-11-20T03:41:48;5.40;99.90
47765;DHT22;33529;49.242;8.670;2022-11-20T03:44:15;5.30;99.90
47765;DHT22;33529;49.242;8.670;2022-11-20T03:46:41;5.40;99.90
47765;DHT22;33529;49.242;8.670;2022-11-20T03:49:08;5.40;99.90
47765;DHT22;33529;49.242;8.670;2022-11-20T03:51:35;5.40;99.90
47765;DHT22;33529;49.242;8.670;2022-11-20T03:54:05;5.40;99.90
47765;DHT22;33529;49.242;8.670;2022-11-20T03:56:35;5.40;99.90
47765;DHT22;33529;49.242;8.670;2022-11-20T03:59:03;5.40;99.90
47765;DHT22;33529;49.242;8.670;2022-11-20T04:01:32;5.40;99.90
47765;DHT22;33529;49.242;8.670;2022-11-20T04:04:00;5.30;99.90
47765;DHT22;33529;49.242;8.670;2022-11-20T04:06:34;5.30;99.90
47765;DHT22;33529;49.242;8.670;2022-11-20T04:09:01;5.20;99.90
47765;DHT22;33529;49.242;8.670;2022-11-20T04:11:30;5.20;99.90
47765;DHT22;33529;49.242;8.670;2022-11-20T04:14:03;5.10;99.90
47765;DHT22;33529;49.242;8.670;2022-11-20T04:16:33;5.00;99.90
47765;DHT22;33529;49.242;8.670;2022-11-20T04:19:02;5.00;99.90
47765;DHT22;33529;49.242;8.670;2022-11-20T04:21:29;5.00;99.90
47765;DHT22;33529;49.242;8.670;2022-11-20T04:23:56;4.90;99.90
47765;DHT22;33529;49.242;8.670;2022-11-20T04:26:25;4.90;99.90
47765;DHT22;33529;49.242;8.670;2022-11-20T04:28:53;5.00;99.90
47765;DHT22;33529;49.242;8.670;2022-11-20T04:31:22;4.90;99.90
47765;DHT22;33529;49.242;8.670;2022-11-20T04:33:50;5.00;99.90
47765;DHT22;33529;49.242;8.670;2022-11-20T04:36:19;5.10;99.90
47765;DHT22;33529;49.242;8.670;2022-11-20T04:38:49;5.10;99.90
47765;DHT22;33529;49.242;8.670;2022-11-20T04:41:27;5.20;99.90
47765;DHT22;33529;49.242;8.670;2022-11-20T04:43:57;5.30;99.90
47765;DHT22;33529;49.242;8.670;2022-11-20T04:46:37;5.30;99.90
47765;DHT22;33529;49.242;8.670;2022-11-20T04:49:04;5.40;99.90
47765;DHT22;33529;49.242;8.670;2022-11-20T04:51:32;5.30;99.90
47765;DHT22;33529;49.242;8.670;2022-11-20T04:53:59;5.30;99.90
47765;DHT22;33529;49.242;8.670;2022-11-20T04:56:26;5.30;99.90
47765;DHT22;33529;49.242;8.670;2022-11-20T04:58:52;5.30;99.90
47765;DHT22;33529;49.242;8.670;2022-11-20T05:01:22;5.30;99.90
47765;DHT22;33529;49.242;8.670;2022-11-20T05:03:49;5.20;99.90
47765;DHT22;33529;49.242;8.670;2022-11-20T05:06:18;5.30;99.90
47765;DHT22;33529;49.242;8.670;2022-11-20T05:08:45;5.30;99.90
47765;DHT22;33529;49.242;8.670;2022-11-20T05:11:15;5.30;99.90
47765;DHT22;33529;49.242;8.670;2022-11-20T05:13:42;5.50;99.90
47765;DHT22;33529;49.242;8.670;2022-11-20T05:16:12;5.50;99.90
47765;DHT22;33529;49.242;8.670;2022-11-20T05:18:40;5.50;99.90
47765;DHT22;33529;49.242;8.670;2022-11-20T05:21:08;5.40;99.90
47765;DHT22;33529;49.242;8.670;2022-11-20T05:23:36;5.40;99.90
47765;DHT22;33529;49.242;8.670;2022-11-20T05:26:04;5.30;99.90
47765;DHT22;33529;49.242;8.670;2022-11-20T05:28:32;5.20;99.90
47765;DHT22;33529;49.242;8.670;2022-11-20T05:31:14;5.20;99.90
47765;DHT22;33529;49.242;8.670;2022-11-20T05:33:42;5.20;99.90
47765;DHT22;33529;49.242;8.670;2022-11-20T05:36:10;5.20;99.90
47765;DHT22;33529;49.242;8.670;2022-11-20T05:38:37;5.30;99.90
47765;DHT22;33529;49.242;8.670;2022-11-20T05:41:22;5.30;99.90
47765;DHT22;33529;49.242;8.670;2022-11-20T05:43:49;5.30;99.90
47765;DHT22;33529;49.242;8.670;2022-11-20T05:46:20;5.30;99.90
47765;DHT22;33529;49.242;8.670;2022-11-20T05:48:54;5.40;99.90
47765;DHT22;33529;49.242;8.670;2022-11-20T05:51:21;5.40;99.90
47765;DHT22;33529;49.242;8.670;2022-11-20T05:53:48;5.40;99.90
47765;DHT22;33529;49.242;8.670;2022-11-20T05:56:18;5.40;99.90
47765;DHT22;33529;49.242;8.670;2022-11-20T05:58:46;5.50;99.90
47765;DHT22;33529;49.242;8.670;2022-11-20T06:01:21;5.50;99.90
47765;DHT22;33529;49.242;8.670;2022-11-20T06:03:48;5.50;99.90
47765;DHT22;33529;49.242;8.670;2022-11-20T06:06:17;5.60;99.90
47765;DHT22;33529;49.242;8.670;2022-11-20T06:08:45;5.70;99.90
47765;DHT22;33529;49.242;8.670;2022-11-20T06:11:13;5.70;99.90
47765;DHT22;33529;49.242;8.670;2022-11-20T06:13:40;5.70;99.90
47765;DHT22;33529;49.242;8.670;2022-11-20T06:16:09;5.80;99.90
47765;DHT22;33529;49.242;8.670;2022-11-20T06:18:37;5.80;99.90
47765;DHT22;33529;49.242;8.670;2022-11-20T06:21:09;5.80;99.90
47765;DHT22;33529;49.242;8.670;2022-11-20T06:23:36;5.80;99.90
47765;DHT22;33529;49.242;8.670;2022-11-20T06:26:08;5.70;99.90
47765;DHT22;33529;49.242;8.670;2022-11-20T06:28:35;5.70;99.90
47765;DHT22;33529;49.242;8.670;2022-11-20T06:31:02;5.70;99.90
47765;DHT22;33529;49.242;8.670;2022-11-20T06:33:30;5.70;99.90
47765;DHT22;33529;49.242;8.670;2022-11-20T06:35:58;5.70;99.90
47765;DHT22;33529;49.242;8.670;2022-11-20T06:38:31;5.80;99.90
47765;DHT22;33529;49.242;8.670;2022-11-20T06:40:58;5.80;99.90
47765;DHT22;33529;49.242;8.670;2022-11-20T06:43:25;5.80;99.90
47765;DHT22;33529;49.242;8.670;2022-11-20T06:45:53;5.90;99.90
47765;DHT22;33529;49.242;8.670;2022-11-20T06:48:21;5.90;99.90
47765;DHT22;33529;49.242;8.670;2022-11-20T06:50:48;5.90;99.90
47765;DHT22;33529;49.242;8.670;2022-11-20T06:53:15;5.90;99.90
47765;DHT22;33529;49.242;8.670;2022-11-20T06:55:43;5.90;99.90
47765;DHT22;33529;49.242;8.670;2022-11-20T06:58:11;6.00;99.90
47765;DHT22;33529;49.242;8.670;2022-11-20T07:00:38;6.00;99.90
47765;DHT22;33529;49.242;8.670;2022-11-20T07:03:06;6.00;99.90
47765;DHT22;33529;49.242;8.670;2022-11-20T07:05:33;6.10;99.90
47765;DHT22;33529;49.242;8.670;2022-11-20T07:08:01;6.00;99.90
47765;DHT22;33529;49.242;8.670;2022-11-20T07:10:28;6.10;99.90
47765;DHT22;33529;49.242;8.670;2022-11-20T07:12:55;6.10;99.90
47765;DHT22;33529;49.242;8.670;2022-11-20T07:15:24;6.20;99.90
47765;DHT22;33529;49.242;8.670;2022-11-20T07:17:52;6.20;99.90
47765;DHT22;33529;49.242;8.670;2022-11-20T07:20:19;6.10;99.90
47765;DHT22;33529;49.242;8.670;2022-11-20T07:22:45;6.20;99.90
47765;DHT22;33529;49.242;8.670;2022-11-20T07:25:12;6.20;99.90
47765;DHT22;33529;49.242;8.670;2022-11-20T07:27:39;6.30;99.90
47765;DHT22;33529;49.242;8.670;2022-11-20T07:30:06;6.30;99.90
47765;DHT22;33529;49.242;8.670;2022-11-20T07:32:33;6.30;99.90
47765;DHT22;33529;49.242;8.670;2022-11-20T07:35:00;6.40;99.90
47765;DHT22;33529;49.242;8.670;2022-11-20T07:37:27;6.40;99.90
47765;DHT22;33529;49.242;8.670;2022-11-20T07:39:53;6.40;99.90
47765;DHT22;33529;49.242;8.670;2022-11-20T07:42:20;6.40;99.90
47765;DHT22;33529;49.242;8.670;2022-11-20T07:44:50;6.40;99.90
47765;DHT22;33529;49.242;8.670;2022-11-20T07:47:16;6.40;99.90
47765;DHT22;33529;49.242;8.670;2022-11-20T07:49:43;6.40;99.90
47765;DHT22;33529;49.242;8.670;2022-11-20T07:52:10;6.50;99.90
47765;DHT22;33529;49.242;8.670;2022-11-20T07:54:36;6.50;99.90
47765;DHT22;33529;49.242;8.670;2022-11-20T07:57:04;6.50;99.90
47765;DHT22;33529;49.242;8.670;2022-11-20T07:59:30;6.50;99.90
47765;DHT22;33529;49.242;8.670;2022-11-20T08:01:58;6.50;99.90
47765;DHT22;33529;49.242;8.670;2022-11-20T08:04:25;6.50;99.90
47765;DHT22;33529;49.242;8.670;2022-11-20T08:06:52;6.60;99.90
47765;DHT22;33529;49.242;8.670;2022-11-20T08:09:19;6.60;99.90
47765;DHT22;33529;49.242;8.670;2022-11-20T08:11:46;6.60;99.90
47765;DHT22;33529;49.242;8.670;2022-11-20T08:14:31;6.70;99.90
47765;DHT22;33529;49.242;8.670;2022-11-20T08:16:58;6.70;99.90
47765;DHT22;33529;49.242;8.670;2022-11-20T08:19:26;6.70;99.90
47765;DHT22;33529;49.242;8.670;2022-11-20T08:21:52;6.70;99.90
47765;DHT22;33529;49.242;8.670;2022-11-20T08:24:19;6.70;99.90
47765;DHT22;33529;49.242;8.670;2022-11-20T08:26:46;6.70;99.90
47765;DHT22;33529;49.242;8.670;2022-11-20T08:29:13;6.80;99.90
47765;DHT22;33529;49.242;8.670;2022-11-20T08:31:41;6.80;99.90
47765;DHT22;33529;49.242;8.670;2022-11-20T08:34:08;6.80;99.90
47765;DHT22;33529;49.242;8.670;2022-11-20T08:36:37;6.80;99.90
47765;DHT22;33529;49.242;8.670;2022-11-20T08:39:04;6.90;99.90
47765;DHT22;33529;49.242;8.670;2022-11-20T08:41:31;6.90;99.90
47765;DHT22;33529;49.242;8.670;2022-11-20T08:44:04;6.90;99.90
47765;DHT22;33529;49.242;8.670;2022-11-20T08:46:34;7.00;99.90
47765;DHT22;33529;49.242;8.670;2022-11-20T08:49:06;7.10;99.90
47765;DHT22;33529;49.242;8.670;2022-11-20T08:51:34;7.10;99.90
47765;DHT22;33529;49.242;8.670;2022-11-20T08:54:01;7.20;99.90
47765;DHT22;33529;49.242;8.670;2022-11-20T08:56:28;7.30;99.90
47765;DHT22;33529;49.242;8.670;2022-11-20T08:58:55;7.20;99.90
47765;DHT22;33529;49.242;8.670;2022-11-20T09:01:42;7.20;99.90
47765;DHT22;33529;49.242;8.670;2022-11-20T09:04:09;7.30;99.90
47765;DHT22;33529;49.242;8.670;2022-11-20T09:06:35;7.30;99.90
47765;DHT22;33529;49.242;8.670;2022-11-20T09:09:02;7.30;99.90
47765;DHT22;33529;49.242;8.670;2022-11-20T09:11:49;7.30;99.90
47765;DHT22;33529;49.242;8.670;2022-11-20T09:14:16;7.30;99.90
47765;DHT22;33529;49.242;8.670;2022-11-20T09:16:45;7.30;99.90
47765;DHT22;33529;49.242;8.670;2022-11-20T09:19:13;7.30;99.90
47765;DHT22;33529;49.242;8.670;2022-11-20T09:22:00;7.30;99.90
47765;DHT22;33529;49.242;8.670;2022-11-20T09:24:27;7.30;99.90
47765;DHT22;33529;49.242;8.670;2022-11-20T09:26:54;7.40;99.90
47765;DHT22;33529;49.242;8.670;2022-11-20T09:29:21;7.40;99.90
47765;DHT22;33529;49.242;8.670;2022-11-20T09:31:48;7.40;99.90
47765;DHT22;33529;49.242;8.670;2022-11-20T09:34:15;7.50;99.90
47765;DHT22;33529;49.242;8.670;2022-11-20T09:36:42;7.50;99.90
47765;DHT22;33529;49.242;8.670;2022-11-20T09:39:09;7.60;99.90
47765;DHT22;33529;49.242;8.670;2022-11-20T09:47:32;7.80;99.90
47765;DHT22;33529;49.242;8.670;2022-11-20T09:50:28;7.80;99.90
47765;DHT22;33529;49.242;8.670;2022-11-20T09:55:47;7.80;99.90
47765;DHT22;33529;49.242;8.670;2022-11-20T10:01:19;7.90;99.90
47765;DHT22;33529;49.242;8.670;2022-11-20T10:06:47;7.80;99.90
47765;DHT22;33529;49.242;8.670;2022-11-20T10:09:34;7.80;99.90
47765;DHT22;33529;49.242;8.670;2022-11-20T10:12:05;7.70;99.90
47765;DHT22;33529;49.242;8.670;2022-11-20T10:18:17;7.70;99.90
47765;DHT22;33529;49.242;8.670;2022-11-20T10:20:32;7.70;99.90
47765;DHT22;33529;49.242;8.670;2022-11-20T10:25:39;7.70;99.90
47765;DHT22;33529;49.242;8.670;2022-11-20T10:28:34;7.90;99.90
47765;DHT22;33529;49.242;8.670;2022-11-20T10:31:08;7.90;99.90
47765;DHT22;33529;49.242;8.670;2022-11-20T10:33:40;8.00;99.90
47765;DHT22;33529;49.242;8.670;2022-11-20T10:36:33;8.00;99.90
47765;DHT22;33529;49.242;8.670;2022-11-20T10:39:14;8.00;99.90
47765;DHT22;33529;49.242;8.670;2022-11-20T10:41:45;7.90;99.90
47765;DHT22;33529;49.242;8.670;2022-11-20T10:44:19;8.00;99.90
47765;DHT22;33529;49.242;8.670;2022-11-20T10:47:08;8.00;99.90
47765;DHT22;33529;49.242;8.670;2022-11-20T10:49:36;8.00;99.90
47765;DHT22;33529;49.242;8.670;2022-11-20T10:52:27;7.90;99.90
47765;DHT22;33529;49.242;8.670;2022-11-20T11:00:19;8.00;99.90
47765;DHT22;33529;49.242;8.670;2022-11-20T11:02:51;8.00;99.90
47765;DHT22;33529;49.242;8.670;2022-11-20T11:05:33;8.10;99.90
47765;DHT22;33529;49.242;8.670;2022-11-20T11:08:01;8.10;99.90
47765;DHT22;33529;49.242;8.670;2022-11-20T11:10:54;8.20;99.90
47765;DHT22;33529;49.242;8.670;2022-11-20T11:13:25;8.30;99.90
47765;DHT22;33529;49.242;8.670;2022-11-20T11:15:53;8.30;99.90
47765;DHT22;33529;49.242;8.670;2022-11-20T11:18:34;8.40;99.90
47765;DHT22;33529;49.242;8.670;2022-11-20T11:21:03;8.50;99.90
47765;DHT22;33529;49.242;8.670;2022-11-20T11:23:33;8.50;99.90
47765;DHT22;33529;49.242;8.670;2022-11-20T11:26:03;8.60;99.90
47765;DHT22;33529;49.242;8.670;2022-11-20T11:28:30;8.60;99.90
47765;DHT22;33529;49.242;8.670;2022-11-20T11:30:58;8.60;99.90
47765;DHT22;33529;49.242;8.670;2022-11-20T11:35:55;8.60;99.90
47765;DHT22;33529;49.242;8.670;2022-11-20T11:38:34;8.60;99.90
47765;DHT22;33529;49.242;8.670;2022-11-20T11:41:03;8.70;99.90
47765;DHT22;33529;49.242;8.670;2022-11-20T11:43:35;8.90;99.90
47765;DHT22;33529;49.242;8.670;2022-11-20T11:46:32;9.00;99.90
47765;DHT22;33529;49.242;8.670;2022-11-20T11:54:04;9.30;99.90
47765;DHT22;33529;49.242;8.670;2022-11-20T11:56:33;9.60;99.90
47765;DHT22;33529;49.242;8.670;2022-11-20T11:59:04;9.70;99.90
47765;DHT22;33529;49.242;8.670;2022-11-20T12:01:45;9.70;99.90
47765;DHT22;33529;49.242;8.670;2022-11-20T12:07:10;9.70;99.90
47765;DHT22;33529;49.242;8.670;2022-11-20T12:10:00;9.60;99.90
47765;DHT22;33529;49.242;8.670;2022-11-20T12:12:36;9.70;99.90
47765;DHT22;33529;49.242;8.670;2022-11-20T12:15:04;9.70;99.90
47765;DHT22;33529;49.242;8.670;2022-11-20T12:17:34;9.70;99.90
47765;DHT22;33529;49.242;8.670;2022-11-20T12:20:00;9.60;99.90
47765;DHT22;33529;49.242;8.670;2022-11-20T12:22:50;9.50;99.90
47765;DHT22;33529;49.242;8.670;2022-11-20T12:25:22;9.60;99.90
47765;DHT22;33529;49.242;8.670;2022-11-20T12:30:52;9.50;99.90
47765;DHT22;33529;49.242;8.670;2022-11-20T12:36:24;9.10;99.90
47765;DHT22;33529;49.242;8.670;2022-11-20T12:41:42;8.80;99.90
47765;DHT22;33529;49.242;8.670;2022-11-20T12:44:45;8.90;99.90
47765;DHT22;33529;49.242;8.670;2022-11-20T12:54:03;9.20;99.90
47765;DHT22;33529;49.242;8.670;2022-11-20T13:05:17;9.70;99.90
47765;DHT22;33529;49.242;8.670;2022-11-20T13:07:46;9.70;99.90
47765;DHT22;33529;49.242;8.670;2022-11-20T13:10:27;9.80;99.90
47765;DHT22;33529;49.242;8.670;2022-11-20T13:13:12;9.90;99.90
47765;DHT22;33529;49.242;8.670;2022-11-20T13:15:55;10.00;99.90
47765;DHT22;33529;49.242;8.670;2022-11-20T13:18:25;10.10;99.90
47765;DHT22;33529;49.242;8.670;2022-11-20T13:20:52;10.20;99.90
47765;DHT22;33529;49.242;8.670;2022-11-20T13:23:23;10.20;99.90
47765;DHT22;33529;49.242;8.670;2022-11-20T13:25:52;10.20;99.90
47765;DHT22;33529;49.242;8.670;2022-11-20T13:28:29;10.00;99.90
47765;DHT22;33529;49.242;8.670;2022-11-20T13:30:57;9.80;99.90
47765;DHT22;33529;49.242;8.670;2022-11-20T13:33:35;9.70;99.90
47765;DHT22;33529;49.242;8.670;2022-11-20T13:36:25;9.50;99.90
47765;DHT22;33529;49.242;8.670;2022-11-20T13:38:54;9.40;99.90
47765;DHT22;33529;49.242;8.670;2022-11-20T13:41:34;9.30;99.90
47765;DHT22;33529;49.242;8.670;2022-11-20T13:44:10;9.20;99.90
47765;DHT22;33529;49.242;8.670;2022-11-20T13:46:44;9.20;99.90
47765;DHT22;33529;49.242;8.670;2022-11-20T13:49:38;9.30;99.90
47765;DHT22;33529;49.242;8.670;2022-11-20T13:58:07;9.30;99.90
47765;DHT22;33529;49.242;8.670;2022-11-20T14:00:50;9.10;99.90
47765;DHT22;33529;49.242;8.670;2022-11-20T14:03:23;9.10;99.90
47765;DHT22;33529;49.242;8.670;2022-11-20T14:06:18;9.00;99.90
47765;DHT22;33529;49.242;8.670;2022-11-20T14:08:49;9.00;99.90
47765;DHT22;33529;49.242;8.670;2022-11-20T14:11:28;8.90;99.90
47765;DHT22;33529;49.242;8.670;2022-11-20T14:14:13;8.80;99.90
47765;DHT22;33529;49.242;8.670;2022-11-20T14:16:41;8.70;99.90
47765;DHT22;33529;49.242;8.670;2022-11-20T14:21:52;8.50;99.90
47765;DHT22;33529;49.242;8.670;2022-11-20T14:24:22;8.40;99.90
47765;DHT22;33529;49.242;8.670;2022-11-20T14:26:50;8.40;99.90
47765;DHT22;33529;49.242;8.670;2022-11-20T14:29:20;8.40;99.90
47765;DHT22;33529;49.242;8.670;2022-11-20T14:31:50;8.40;99.90
47765;DHT22;33529;49.242;8.670;2022-11-20T14:34:28;8.30;99.90
47765;DHT22;33529;49.242;8.670;2022-11-20T14:37:02;8.30;99.90
47765;DHT22;33529;49.242;8.670;2022-11-20T14:39:36;8.20;99.90
47765;DHT22;33529;49.242;8.670;2022-11-20T14:42:15;8.20;99.90
47765;DHT22;33529;49.242;8.670;2022-11-20T14:44:42;8.10;99.90
47765;DHT22;33529;49.242;8.670;2022-11-20T14:47:12;8.10;99.90
47765;DHT22;33529;49.242;8.670;2022-11-20T14:49:39;8.00;99.90
47765;DHT22;33529;49.242;8.670;2022-11-20T14:52:18;8.00;99.90
47765;DHT22;33529;49.242;8.670;2022-11-20T14:54:47;7.90;99.90
47765;DHT22;33529;49.242;8.670;2022-11-20T15:00:05;7.90;99.90
47765;DHT22;33529;49.242;8.670;2022-11-20T15:02:33;7.90;99.90
47765;DHT22;33529;49.242;8.670;2022-11-20T15:05:01;7.80;99.90
47765;DHT22;33529;49.242;8.670;2022-11-20T15:07:36;7.80;99.90
47765;DHT22;33529;49.242;8.670;2022-11-20T15:10:11;7.70;99.90
47765;DHT22;33529;49.242;8.670;2022-11-20T15:12:45;7.70;99.90
47765;DHT22;33529;49.242;8.670;2022-11-20T15:15:16;7.70;99.90
47765;DHT22;33529;49.242;8.670;2022-11-20T15:17:44;7.70;99.90
47765;DHT22;33529;49.242;8.670;2022-11-20T15:20:14;7.70;99.90
47765;DHT22;33529;49.242;8.670;2022-11-20T15:22:42;7.70;99.90
47765;DHT22;33529;49.242;8.670;2022-11-20T15:25:18;7.60;99.90
47765;DHT22;33529;49.242;8.670;2022-11-20T15:27:45;7.60;99.90
47765;DHT22;33529;49.242;8.670;2022-11-20T15:30:19;7.50;99.90
47765;DHT22;33529;49.242;8.670;2022-11-20T15:32:47;7.50;99.90
47765;DHT22;33529;49.242;8.670;2022-11-20T15:35:15;7.40;99.90
47765;DHT22;33529;49.242;8.670;2022-11-20T15:37:42;7.40;99.90
47765;DHT22;33529;49.242;8.670;2022-11-20T15:40:09;7.40;99.90
47765;DHT22;33529;49.242;8.670;2022-11-20T15:42:36;7.30;99.90
47765;DHT22;33529;49.242;8.670;2022-11-20T15:45:03;7.30;99.90
47765;DHT22;33529;49.242;8.670;2022-11-20T15:47:33;7.30;99.90
47765;DHT22;33529;49.242;8.670;2022-11-20T15:50:00;7.20;99.90
47765;DHT22;33529;49.242;8.670;2022-11-20T15:52:27;7.20;99.90
47765;DHT22;33529;49.242;8.670;2022-11-20T15:55:04;7.20;99.90
47765;DHT22;33529;49.242;8.670;2022-11-20T15:57:35;7.10;99.90
47765;DHT22;33529;49.242;8.670;2022-11-20T16:00:02;7.20;99.90
47765;DHT22;33529;49.242;8.670;2022-11-20T16:02:36;7.30;99.90
47765;DHT22;33529;49.242;8.670;2022-11-20T16:05:03;7.20;99.90
47765;DHT22;33529;49.242;8.670;2022-11-20T16:07:30;7.30;99.90
47765;DHT22;33529;49.242;8.670;2022-11-20T16:09:57;7.20;99.90
47765;DHT22;33529;49.242;8.670;2022-11-20T16:12:24;7.30;99.90
47765;DHT22;33529;49.242;8.670;2022-11-20T16:15:09;7.30;99.90
47765;DHT22;33529;49.242;8.670;2022-11-20T16:17:55;7.20;99.90
47765;DHT22;33529;49.242;8.670;2022-11-20T16:20:21;7.30;99.90
47765;DHT22;33529;49.242;8.670;2022-11-20T16:22:48;7.40;99.90
47765;DHT22;33529;49.242;8.670;2022-11-20T16:25:15;7.40;99.90
47765;DHT22;33529;49.242;8.670;2022-11-20T16:27:42;7.50;99.90
47765;DHT22;33529;49.242;8.670;2022-11-20T16:30:09;7.50;99.90
47765;DHT22;33529;49.242;8.670;2022-11-20T16:32:36;7.50;99.90
47765;DHT22;33529;49.242;8.670;2022-11-20T16:35:05;7.50;99.90
47765;DHT22;33529;49.242;8.670;2022-11-20T16:37:34;7.60;99.90
47765;DHT22;33529;49.242;8.670;2022-11-20T16:40:01;7.60;99.90
47765;DHT22;33529;49.242;8.670;2022-11-20T16:42:27;7.60;99.90
47765;DHT22;33529;49.242;8.670;2022-11-20T16:44:55;7.60;99.90
47765;DHT22;33529;49.242;8.670;2022-11-20T16:47:22;7.60;99.90
47765;DHT22;33529;49.242;8.670;2022-11-20T16:49:49;7.60;99.90
47765;DHT22;33529;49.242;8.670;2022-11-20T16:52:15;7.60;99.90
47765;DHT22;33529;49.242;8.670;2022-11-20T16:54:42;7.70;99.90
47765;DHT22;33529;49.242;8.670;2022-11-20T16:57:09;7.70;99.90
47765;DHT22;33529;49.242;8.670;2022-11-20T16:59:35;7.70;99.90
47765;DHT22;33529;49.242;8.670;2022-11-20T17:02:03;7.70;99.90
47765;DHT22;33529;49.242;8.670;2022-11-20T17:04:30;7.70;99.90
47765;DHT22;33529;49.242;8.670;2022-11-20T17:06:56;7.70;99.90
47765;DHT22;33529;49.242;8.670;2022-11-20T17:09:24;7.70;99.90
47765;DHT22;33529;49.242;8.670;2022-11-20T17:11:50;7.70;99.90
47765;DHT22;33529;49.242;8.670;2022-11-20T17:14:18;7.70;99.90
47765;DHT22;33529;49.242;8.670;2022-11-20T17:16:45;7.70;99.90
47765;DHT22;33529;49.242;8.670;2022-11-20T17:19:13;7.60;99.90
47765;DHT22;33529;49.242;8.670;2022-11-20T17:21:40;7.60;99.90